ADDS METAR Data INFO
IDs: Format: Raw Decoded Include TAF

Data at: 2222 UTC 22 Aug 2017

KASH 222156Z VRB06KT 10SM SCT050 31/22 A2975 RMK AO2 SLP082 T03060217
KASH 222056Z VRB03KT 10SM FEW050 SCT060 31/22 A2977 RMK AO2 SLP088 T03110217 56034
KASH 221956Z 18007KT 130V230 10SM SCT050 BKN060 32/22 A2978 RMK AO2 SLP092 T03170222
KASH 221856Z 24007KT 200V280 10SM SCT043 BKN050 31/23 A2982 RMK AO2 SLP106 T03110228
KASH 221756Z COR 17007G15KT 120V220 10SM FEW033 SCT042 BKN049 31/23 A2987 RMK AO2 SLP122 T03060228 10306 20222 58021
KASH 221656Z VRB05KT 10SM SCT025 29/23 A2989 RMK AO2 SLP130 T02940228
KASH 221556Z VRB05KT 6SM HZ SCT025 28/23 A2993 RMK AO2 SLP143 T02830228
KASH 221554Z 17007KT 140V220 10SM BKN025 28/23 A2993 RMK AO2
KASH 221456Z VRB04KT 8SM SCT021 28/22 A2995 RMK AO2 SLP149 T02780222 58017
KASH 221356Z VRB05KT 10SM CLR 26/22 A2997 RMK AO2 SLP156 T02560217
KASH 221256Z VRB03KT 10SM CLR 24/21 A2998 RMK AO2 SLP161 T02440211
KASH 221156Z 13003KT 10SM CLR 22/21 A3000 RMK AO2 SLP166 T02220206 10222 20183 58005
KASH 221056Z 10003KT 10SM CLR 20/19 A3001 RMK AO2 SLP169 T02000189
KASH 220956Z AUTO 00000KT 10SM CLR 19/18 A3001 RMK AO2 SLP170 T01890183
KASH 220856Z AUTO 00000KT 10SM CLR 19/18 A3001 RMK AO2 SLP171 T01890183 56014
KASH 220756Z AUTO 00000KT 10SM CLR 19/18 A3002 RMK AO2 SLP173 T01940183
KASH 220656Z AUTO 00000KT 10SM CLR 19/18 A3003 RMK AO2 SLP178 T01890183
KASH 220556Z AUTO 00000KT 10SM CLR 19/18 A3005 RMK AO2 SLP185 T01940183 10244 20194 56002
KASH 220456Z AUTO 00000KT 10SM CLR 21/18 A3006 RMK AO2 SLP185 T02110183
KASH 220356Z AUTO 00000KT 10SM CLR 22/18 A3006 RMK AO2 SLP186 T02170183 402890139
KASH 220256Z AUTO 00000KT 10SM CLR 21/19 A3006 RMK AO2 SLP187 T02110189 58003
KASH 220156Z AUTO 00000KT 10SM CLR 22/19 A3007 RMK AO2 SLP191 T02220189
KASH 220056Z 00000KT 10SM CLR 22/19 A3007 RMK AO2 SLP192 T02220194
KASH 212356Z 23003KT 10SM CLR 24/19 A3007 RMK AO2 SLP191 HAZY T02440194 10289 20244 55003
KASH 212256Z 00000KT 10SM CLR 27/19 A3007 RMK AO2 SLP190 T02670194
KASH 212156Z VRB03KT 10SM CLR 28/19 A3007 RMK AO2 SLP191 HAZY T02830189
KASH 212056Z 25006KT 10SM CLR 29/18 A3008 RMK AO2 SLP194 HAZY T02890183 56009
KASH 211956Z VRB04KT 10SM CLR 29/18 A3009 RMK AO2 SLP196 T02890178
KASH 211856Z 00000KT 10SM CLR 27/18 A3009 RMK AO2 SLP198 HAZY T02720178
KASH 211756Z 26003KT 10SM SCT060 29/18 A3011 RMK AO2 SLP203 T02890183 10289 20172 58016
KASH 211656Z 24007KT 9SM FEW060 28/17 A3013 RMK AO2 SLP209 T02780172
KASH 211556Z VRB04KT 10SM CLR 28/18 A3015 RMK AO2 SLP216 T02780178
KASH 211456Z 00000KT 10SM CLR 26/18 A3015 RMK AO2 SLP219 T02610183 55007
KASH 211356Z 33003KT 10SM CLR 24/18 A3015 RMK AO2 SLP218 T02440183
KASH 211256Z 00000KT 9SM CLR 22/17 A3017 RMK AO2 SLP223 T02170172
KASH 211156Z 00000KT 10SM CLR 17/16 A3018 RMK AO2 SLP227 T01720156 10172 20139 51009
KASH 211056Z 00000KT 10SM CLR 15/14 A3017 RMK AO2 SLP226 T01500144